Terminal Aerodrome Forecast
Issued by NWS Flagstaff, AZ

Home | Current Version | Previous Version | Text Only | Print | Product List | Glossary On
Versions: 1 2 3 4 5 6 7 8 9 10 11 12 13 14 15 16 17
982
FTUS45 KFGZ 210522
TAFFLG
TAF
KFLG 210522Z 2106/2206 VRB06KT P6SM BKN250
     FM211600 20015G25KT P6SM BKN200
     FM220300 22010KT P6SM SCT150=

USA.gov is the U.S. government's official web portal to all federal, state and local government web resources and services.